createdAt,value
2019-05-20T00:01:26.758Z,16.30
2019-05-20T00:03:57.889Z,16.30
2019-05-20T00:06:28.372Z,16.30
2019-05-20T00:08:59.141Z,16.20
2019-05-20T00:11:29.239Z,16.20
2019-05-20T00:13:59.752Z,16.20
2019-05-20T00:16:31.177Z,16.10
2019-05-20T00:19:02.281Z,16.20
2019-05-20T00:21:32.443Z,16.20
2019-05-20T00:24:03.390Z,16.20
2019-05-20T00:26:34.275Z,16.20
2019-05-20T00:29:04.993Z,16.20
2019-05-20T00:31:36.013Z,16.20
2019-05-20T00:34:06.761Z,16.20
2019-05-20T00:36:37.085Z,16.20
2019-05-20T00:39:18.801Z,16.20
2019-05-20T00:41:51.453Z,16.20
2019-05-20T00:44:22.579Z,16.20
2019-05-20T00:46:52.825Z,16.20
2019-05-20T00:49:23.334Z,16.20
2019-05-20T00:51:54.415Z,16.10
2019-05-20T00:54:25.538Z,16.10
2019-05-20T00:56:56.514Z,16.10
2019-05-20T00:59:28.658Z,16.10
2019-05-20T01:01:59.169Z,16.00
2019-05-20T01:04:29.956Z,16.00
2019-05-20T01:07:00.478Z,16.00
2019-05-20T01:09:30.539Z,16.00
2019-05-20T01:12:01.546Z,16.00
2019-05-20T01:14:32.504Z,15.90
2019-05-20T01:17:03.452Z,15.90
2019-05-20T01:19:34.538Z,15.80
2019-05-20T01:22:05.274Z,15.80
2019-05-20T01:24:36.476Z,15.80
2019-05-20T01:27:08.432Z,15.80
2019-05-20T01:29:39.175Z,15.70
2019-05-20T01:32:10.126Z,15.70
2019-05-20T01:34:41.276Z,15.60
2019-05-20T01:37:12.007Z,15.60
2019-05-20T01:39:42.516Z,15.50
2019-05-20T01:42:12.818Z,15.50
2019-05-20T01:44:43.429Z,15.40
2019-05-20T01:47:13.738Z,15.40
2019-05-20T01:49:44.004Z,15.30
2019-05-20T01:52:14.803Z,15.30
2019-05-20T01:54:44.934Z,15.20
2019-05-20T01:57:17.519Z,15.10
2019-05-20T01:59:48.138Z,15.00
2019-05-20T02:02:18.416Z,15.00
2019-05-20T02:04:49.113Z,15.00
2019-05-20T02:07:20.462Z,15.00
2019-05-20T02:09:51.399Z,14.90
2019-05-20T02:12:21.938Z,14.80
2019-05-20T02:14:58.413Z,14.80
2019-05-20T02:17:28.970Z,14.80
2019-05-20T02:19:59.687Z,14.70
2019-05-20T02:22:30.219Z,14.60
2019-05-20T02:25:01.359Z,14.60
2019-05-20T02:27:32.715Z,14.50
2019-05-20T02:30:03.837Z,14.50
2019-05-20T02:32:34.751Z,14.40
2019-05-20T02:35:05.348Z,14.40
2019-05-20T02:37:37.117Z,14.40
2019-05-20T02:40:08.833Z,14.30
2019-05-20T02:42:39.973Z,14.30
2019-05-20T02:45:12.192Z,14.30
2019-05-20T02:47:42.931Z,14.20
2019-05-20T02:50:13.780Z,14.20
2019-05-20T02:52:44.227Z,14.10
2019-05-20T02:55:16.721Z,14.10
2019-05-20T02:57:48.136Z,14.10
2019-05-20T03:00:19.275Z,14.10
2019-05-20T03:02:50.167Z,14.10
2019-05-20T03:05:20.684Z,14.00
2019-05-20T03:07:51.917Z,14.00
2019-05-20T03:10:22.643Z,14.00
2019-05-20T03:12:53.589Z,14.00
2019-05-20T03:15:24.332Z,13.90
2019-05-20T03:17:55.684Z,13.90
2019-05-20T03:20:25.747Z,13.90
2019-05-20T03:22:56.697Z,13.90
2019-05-20T03:25:27.488Z,13.90
2019-05-20T03:27:57.616Z,13.90
2019-05-20T03:30:28.358Z,13.90
2019-05-20T03:32:59.098Z,13.90
2019-05-20T03:35:29.637Z,13.90
2019-05-20T03:38:00.565Z,13.90
2019-05-20T03:40:31.179Z,13.90
2019-05-20T03:43:02.249Z,13.90
2019-05-20T03:45:33.195Z,13.90
2019-05-20T03:48:03.694Z,13.90
2019-05-20T03:50:34.577Z,13.90
2019-05-20T03:53:04.797Z,13.90
2019-05-20T03:55:35.583Z,13.90
2019-05-20T03:58:05.744Z,13.90
2019-05-20T04:00:53.753Z,13.90
2019-05-20T04:03:24.973Z,13.90
2019-05-20T04:05:56.102Z,13.90
2019-05-20T04:08:26.814Z,13.80
2019-05-20T04:10:57.584Z,13.90
2019-05-20T04:13:28.470Z,13.90
2019-05-20T04:15:59.270Z,13.90
2019-05-20T04:18:29.607Z,13.90
2019-05-20T04:21:00.753Z,13.90
2019-05-20T04:23:31.423Z,13.90
2019-05-20T04:26:02.006Z,13.90
2019-05-20T04:28:32.668Z,14.00
2019-05-20T04:31:06.557Z,14.00
2019-05-20T04:33:37.461Z,14.00
2019-05-20T04:36:08.642Z,14.00
2019-05-20T04:38:39.002Z,14.10
2019-05-20T04:41:09.919Z,14.10
2019-05-20T04:43:40.866Z,14.10
2019-05-20T04:46:12.833Z,14.10
2019-05-20T04:48:43.980Z,14.20
2019-05-20T04:51:15.115Z,14.20
2019-05-20T04:53:46.699Z,14.30
2019-05-20T04:56:17.425Z,14.30
2019-05-20T04:58:48.310Z,14.40
2019-05-20T05:01:19.540Z,14.50
2019-05-20T05:03:50.263Z,14.50
2019-05-20T05:06:21.200Z,14.60
2019-05-20T05:08:51.530Z,14.60
2019-05-20T05:11:22.408Z,14.60
2019-05-20T05:13:54.534Z,14.70
2019-05-20T05:16:25.180Z,14.70
2019-05-20T05:18:55.392Z,14.70
2019-05-20T05:21:26.047Z,14.80
2019-05-20T05:23:59.330Z,14.80
2019-05-20T05:26:29.769Z,14.90
2019-05-20T05:29:00.590Z,15.00
2019-05-20T05:31:31.452Z,15.10
2019-05-20T05:34:01.807Z,15.20
2019-05-20T05:36:32.943Z,15.20
2019-05-20T05:39:04.815Z,15.30
2019-05-20T05:41:35.440Z,15.40
2019-05-20T05:44:05.712Z,15.50
2019-05-20T05:46:36.899Z,15.60
2019-05-20T05:49:07.575Z,15.70
2019-05-20T05:51:38.395Z,15.80
2019-05-20T05:54:09.294Z,16.00
2019-05-20T05:56:42.293Z,16.10
2019-05-20T05:59:13.208Z,16.10
2019-05-20T06:01:44.143Z,16.10
2019-05-20T06:04:14.284Z,16.10
2019-05-20T06:06:45.491Z,16.10
2019-05-20T06:09:16.165Z,16.20
2019-05-20T06:11:47.365Z,16.20
2019-05-20T06:14:18.316Z,16.30
2019-05-20T06:16:48.841Z,16.30
2019-05-20T06:19:19.582Z,16.50
2019-05-20T06:21:50.061Z,16.60
2019-05-20T06:24:21.469Z,16.70
2019-05-20T06:26:52.402Z,16.80
2019-05-20T06:29:22.685Z,16.80
2019-05-20T06:31:53.863Z,16.90
2019-05-20T06:34:25.327Z,17.00
2019-05-20T06:36:58.141Z,17.00
2019-05-20T06:39:29.174Z,16.90
2019-05-20T06:41:59.646Z,17.00
2019-05-20T06:44:30.225Z,17.00
2019-05-20T06:47:01.185Z,17.10
2019-05-20T06:49:32.019Z,17.10
2019-05-20T06:52:02.456Z,17.10
2019-05-20T06:54:32.992Z,17.10
2019-05-20T06:57:04.346Z,17.20
2019-05-20T06:59:35.083Z,17.30
2019-05-20T07:02:06.643Z,17.20
2019-05-20T07:04:37.391Z,17.20
2019-05-20T07:07:19.909Z,17.30
2019-05-20T07:09:39.550Z,17.20
2019-05-20T07:12:10.822Z,17.20
2019-05-20T07:14:41.939Z,17.20
2019-05-20T07:17:12.480Z,17.10
2019-05-20T07:19:43.241Z,17.10
2019-05-20T07:22:14.409Z,17.10
2019-05-20T07:24:45.090Z,17.10
2019-05-20T07:27:16.904Z,17.20
2019-05-20T07:29:47.489Z,17.10
2019-05-20T07:32:18.782Z,17.20
2019-05-20T07:34:50.138Z,17.30
2019-05-20T07:37:22.345Z,17.30
2019-05-20T07:39:53.021Z,17.40
2019-05-20T07:42:23.782Z,17.50
2019-05-20T07:44:54.470Z,17.60
2019-05-20T07:47:25.475Z,17.60
2019-05-20T07:49:57.445Z,17.60
2019-05-20T07:52:29.408Z,17.60
2019-05-20T07:55:01.326Z,17.70
2019-05-20T07:57:35.603Z,17.70
2019-05-20T08:00:06.518Z,17.60
2019-05-20T08:02:37.613Z,17.50
2019-05-20T08:05:09.236Z,17.50
2019-05-20T08:07:51.945Z,17.50
2019-05-20T08:10:14.768Z,17.50
2019-05-20T08:12:45.555Z,17.50
2019-05-20T08:15:17.680Z,17.50
2019-05-20T08:17:48.278Z,17.70
2019-05-20T08:20:19.061Z,17.80
2019-05-20T08:22:50.502Z,18.10
2019-05-20T08:25:22.930Z,18.30
2019-05-20T08:27:53.287Z,18.50
2019-05-20T08:30:37.316Z,18.70
2019-05-20T08:33:09.402Z,18.90
2019-05-20T08:35:40.640Z,19.30
2019-05-20T08:38:12.794Z,19.30
2019-05-20T08:40:47.829Z,19.30
2019-05-20T08:43:16.741Z,19.20
2019-05-20T08:45:48.086Z,19.10
2019-05-20T08:48:18.721Z,19.00
2019-05-20T08:50:50.180Z,19.00
2019-05-20T08:53:20.913Z,19.10
2019-05-20T08:55:51.810Z,19.30
2019-05-20T08:58:22.601Z,19.60
2019-05-20T09:00:53.770Z,20.10
2019-05-20T09:03:24.497Z,20.40
2019-05-20T09:05:55.378Z,20.50
2019-05-20T09:08:26.586Z,20.50
2019-05-20T09:10:57.723Z,20.40
2019-05-20T09:13:29.086Z,20.50
2019-05-20T09:16:00.448Z,20.40
2019-05-20T09:18:30.582Z,20.30
2019-05-20T09:21:01.706Z,20.30
2019-05-20T09:23:32.844Z,20.30
2019-05-20T09:26:04.011Z,20.40
2019-05-20T09:28:34.956Z,20.50
2019-05-20T09:31:06.091Z,20.80
2019-05-20T09:33:38.467Z,21.20
2019-05-20T09:36:10.224Z,21.70
2019-05-20T09:38:40.349Z,22.00
2019-05-20T09:41:10.486Z,22.20
2019-05-20T09:43:41.033Z,22.00
2019-05-20T09:46:12.223Z,21.70
2019-05-20T09:48:43.029Z,21.50
2019-05-20T09:51:13.169Z,21.70
2019-05-20T09:53:44.165Z,22.20
2019-05-20T09:56:15.123Z,22.50
2019-05-20T09:58:46.084Z,22.50
2019-05-20T10:01:18.031Z,22.40
2019-05-20T10:03:48.507Z,22.40
2019-05-20T10:06:19.725Z,22.20
2019-05-20T10:08:49.982Z,21.90
2019-05-20T10:11:20.781Z,21.60
2019-05-20T10:13:51.520Z,21.40
2019-05-20T10:16:22.259Z,21.20
2019-05-20T10:18:55.348Z,20.90
2019-05-20T10:21:25.783Z,20.60
2019-05-20T10:23:56.738Z,20.50
2019-05-20T10:26:27.285Z,20.30
2019-05-20T10:28:57.920Z,20.10
2019-05-20T10:31:29.381Z,19.90
2019-05-20T10:34:01.938Z,19.70
2019-05-20T10:36:33.490Z,19.30
2019-05-20T10:39:07.837Z,19.10
2019-05-20T10:41:38.274Z,18.80
2019-05-20T10:44:09.386Z,18.60
2019-05-20T10:46:39.464Z,18.40
2019-05-20T10:49:09.862Z,18.20
2019-05-20T10:51:41.194Z,18.20
2019-05-20T10:54:11.933Z,18.10
2019-05-20T10:56:42.013Z,18.20
2019-05-20T10:59:12.945Z,18.20
2019-05-20T11:01:43.324Z,18.40
2019-05-20T11:04:14.686Z,18.50
2019-05-20T11:06:45.575Z,18.60
2019-05-20T11:09:17.366Z,18.80
2019-05-20T11:11:48.124Z,18.90
2019-05-20T11:14:18.457Z,18.90
2019-05-20T11:16:49.402Z,19.00
2019-05-20T11:19:20.514Z,19.00
2019-05-20T11:21:51.921Z,19.10
2019-05-20T11:24:23.050Z,19.30
2019-05-20T11:26:53.786Z,19.30
2019-05-20T11:29:24.690Z,19.10
2019-05-20T11:31:54.830Z,19.00
2019-05-20T11:34:25.397Z,19.00
2019-05-20T11:36:56.117Z,18.90
2019-05-20T11:39:33.127Z,18.70
2019-05-20T11:41:59.042Z,18.80
2019-05-20T11:44:29.586Z,18.70
2019-05-20T11:47:00.100Z,18.70
2019-05-20T11:49:30.353Z,18.70
2019-05-20T11:52:00.969Z,18.50
2019-05-20T11:54:31.490Z,18.40
2019-05-20T11:57:02.451Z,18.30
2019-05-20T11:59:32.980Z,18.30
2019-05-20T12:02:04.181Z,18.30
2019-05-20T12:04:35.016Z,18.30
2019-05-20T12:07:08.610Z,18.40
2019-05-20T12:09:48.819Z,18.50
2019-05-20T12:12:10.716Z,18.70
2019-05-20T12:14:42.089Z,18.70
2019-05-20T12:17:13.468Z,18.80
2019-05-20T12:19:44.247Z,18.90
2019-05-20T12:22:14.756Z,19.00
2019-05-20T12:24:45.070Z,19.00
2019-05-20T12:27:15.606Z,19.00
2019-05-20T12:29:46.454Z,18.90
2019-05-20T12:32:17.903Z,18.90
2019-05-20T12:34:48.488Z,18.80
2019-05-20T12:37:19.595Z,18.80
2019-05-20T12:40:05.898Z,18.70
2019-05-20T12:42:22.645Z,18.80
2019-05-20T12:44:53.440Z,19.00
2019-05-20T12:47:24.388Z,19.10
2019-05-20T12:49:55.301Z,19.10
2019-05-20T12:52:26.271Z,19.00
2019-05-20T12:55:07.921Z,18.90
2019-05-20T12:57:30.001Z,19.00
2019-05-20T13:00:00.394Z,18.90
2019-05-20T13:02:31.475Z,18.80
2019-05-20T13:05:02.675Z,18.80
2019-05-20T13:07:34.179Z,18.70
2019-05-20T13:10:05.016Z,18.60
2019-05-20T13:12:36.030Z,18.50
2019-05-20T13:15:07.764Z,18.40
2019-05-20T13:17:42.904Z,18.20
2019-05-20T13:20:11.720Z,18.10
2019-05-20T13:22:42.285Z,18.00
2019-05-20T13:25:13.994Z,18.00
2019-05-20T13:27:44.550Z,18.00
2019-05-20T13:30:16.564Z,18.10
2019-05-20T13:32:47.918Z,18.10
2019-05-20T13:35:18.192Z,18.20
2019-05-20T13:37:48.727Z,18.30
2019-05-20T13:40:20.729Z,18.30
2019-05-20T13:42:50.873Z,18.30
2019-05-20T13:45:22.425Z,18.20
2019-05-20T13:47:52.580Z,18.20
2019-05-20T13:50:24.376Z,18.30
2019-05-20T13:52:56.081Z,18.30
2019-05-20T13:55:27.029Z,18.30
2019-05-20T13:57:57.961Z,18.40
2019-05-20T14:00:28.846Z,18.60
2019-05-20T14:02:59.411Z,18.70
2019-05-20T14:05:29.981Z,18.80
2019-05-20T14:08:00.923Z,18.70
2019-05-20T14:10:31.690Z,18.80
2019-05-20T14:13:02.606Z,18.70
2019-05-20T14:15:33.136Z,18.70
2019-05-20T14:18:03.873Z,18.70
2019-05-20T14:20:36.066Z,18.60
2019-05-20T14:23:07.616Z,18.50
2019-05-20T14:25:38.962Z,18.40
2019-05-20T14:28:09.930Z,18.40
2019-05-20T14:30:40.226Z,18.20
2019-05-20T14:33:10.975Z,18.20
2019-05-20T14:35:41.702Z,18.30
2019-05-20T14:38:12.604Z,18.20
2019-05-20T14:40:43.534Z,18.10
2019-05-20T14:43:14.485Z,18.00
2019-05-20T14:45:45.700Z,18.00
2019-05-20T14:48:16.279Z,18.00
2019-05-20T14:50:47.158Z,18.10
2019-05-20T14:53:17.703Z,18.10
2019-05-20T14:55:49.255Z,18.10
2019-05-20T14:58:19.796Z,18.10
2019-05-20T15:00:50.238Z,18.20
2019-05-20T15:03:21.011Z,18.10
2019-05-20T15:05:51.801Z,18.20
2019-05-20T15:08:23.984Z,18.20
2019-05-20T15:10:54.656Z,18.20
2019-05-20T15:13:25.657Z,18.10
2019-05-20T15:15:56.598Z,18.10
2019-05-20T15:18:27.542Z,18.20
2019-05-20T15:20:58.009Z,18.20
2019-05-20T15:23:28.224Z,18.20
2019-05-20T15:25:58.363Z,18.20
2019-05-20T15:28:28.604Z,18.20
2019-05-20T15:30:58.945Z,18.20
2019-05-20T15:33:29.675Z,18.20
2019-05-20T15:35:59.963Z,18.20
2019-05-20T15:38:30.751Z,18.20
2019-05-20T15:41:01.312Z,18.10
2019-05-20T15:43:32.272Z,18.10
2019-05-20T15:46:03.040Z,18.00
2019-05-20T15:48:34.151Z,17.90
2019-05-20T15:51:04.857Z,17.80
2019-05-20T15:53:35.375Z,17.80
2019-05-20T15:56:06.501Z,17.80
2019-05-20T15:58:39.561Z,17.70
2019-05-20T16:01:10.706Z,17.70
2019-05-20T16:03:41.668Z,17.70
2019-05-20T16:06:13.419Z,17.60
2019-05-20T16:08:44.375Z,17.50
2019-05-20T16:11:15.034Z,17.50
2019-05-20T16:13:46.007Z,17.40
2019-05-20T16:16:16.801Z,17.40
2019-05-20T16:18:47.053Z,17.40
2019-05-20T16:21:18.009Z,17.20
2019-05-20T16:23:48.661Z,17.10
2019-05-20T16:26:19.125Z,17.10
2019-05-20T16:28:50.062Z,17.10
2019-05-20T16:31:20.181Z,17.00
2019-05-20T16:33:50.678Z,17.10
2019-05-20T16:36:21.871Z,17.10
2019-05-20T16:38:51.949Z,17.10
2019-05-20T16:41:21.992Z,17.10
2019-05-20T16:43:53.241Z,17.10
2019-05-20T16:46:26.665Z,17.00
2019-05-20T16:48:57.699Z,17.00
2019-05-20T16:51:28.052Z,17.00
2019-05-20T16:54:00.735Z,16.80
2019-05-20T16:56:31.875Z,16.70
2019-05-20T16:59:02.703Z,16.70
2019-05-20T17:01:45.544Z,16.70
2019-05-20T17:04:06.143Z,16.70
2019-05-20T17:06:36.673Z,16.70
2019-05-20T17:09:07.627Z,16.80
2019-05-20T17:11:38.762Z,16.80
2019-05-20T17:14:10.704Z,16.80
2019-05-20T17:16:41.268Z,16.90
2019-05-20T17:19:11.841Z,16.90
2019-05-20T17:21:42.180Z,16.90
2019-05-20T17:24:12.664Z,16.90
2019-05-20T17:26:43.796Z,16.90
2019-05-20T17:29:14.978Z,16.80
2019-05-20T17:31:46.327Z,16.70
2019-05-20T17:34:16.467Z,16.60
2019-05-20T17:36:47.106Z,16.60
2019-05-20T17:39:18.514Z,16.60
2019-05-20T17:41:49.270Z,16.50
2019-05-20T17:44:19.592Z,16.50
2019-05-20T17:46:50.335Z,16.50
2019-05-20T17:49:20.735Z,16.50
2019-05-20T17:51:51.953Z,16.60
2019-05-20T17:54:23.375Z,16.50
2019-05-20T17:56:54.307Z,16.50
2019-05-20T17:59:26.078Z,16.50
2019-05-20T18:01:56.816Z,16.60
2019-05-20T18:04:29.141Z,16.60
2019-05-20T18:07:00.128Z,16.60
2019-05-20T18:09:32.031Z,16.60
2019-05-20T18:12:03.459Z,16.50
2019-05-20T18:14:34.404Z,16.50
2019-05-20T18:17:05.278Z,16.50
2019-05-20T18:19:36.354Z,16.40
2019-05-20T18:22:06.613Z,16.40
2019-05-20T18:24:37.099Z,16.30
2019-05-20T18:27:08.498Z,16.30
2019-05-20T18:29:38.854Z,16.30
2019-05-20T18:32:09.968Z,16.30
2019-05-20T18:34:41.157Z,16.30
2019-05-20T18:37:12.884Z,16.30
2019-05-20T18:39:43.198Z,16.30
2019-05-20T18:42:14.176Z,16.20
2019-05-20T18:44:45.709Z,16.20
2019-05-20T18:47:17.068Z,16.10
2019-05-20T18:49:47.789Z,16.00
2019-05-20T18:52:18.686Z,16.10
2019-05-20T18:54:49.234Z,16.00
2019-05-20T18:57:20.778Z,16.00
2019-05-20T18:59:52.698Z,16.00
2019-05-20T19:02:23.552Z,16.00
2019-05-20T19:04:54.910Z,15.90
2019-05-20T19:07:26.462Z,15.90
2019-05-20T19:09:56.891Z,15.90
2019-05-20T19:12:27.887Z,15.90
2019-05-20T19:14:59.092Z,15.80
2019-05-20T19:17:30.455Z,15.90
2019-05-20T19:20:01.011Z,15.90
2019-05-20T19:22:31.315Z,15.80
2019-05-20T19:25:03.594Z,15.90
2019-05-20T19:27:35.445Z,15.90
2019-05-20T19:30:11.299Z,15.90
2019-05-20T19:32:41.824Z,15.90
2019-05-20T19:35:12.780Z,15.90
2019-05-20T19:37:43.350Z,15.80
2019-05-20T19:40:14.186Z,15.80
2019-05-20T19:42:45.613Z,15.80
2019-05-20T19:45:17.167Z,15.80
2019-05-20T19:47:47.913Z,15.80
2019-05-20T19:50:18.793Z,15.80
2019-05-20T19:52:50.872Z,15.80
2019-05-20T19:55:21.761Z,15.70
2019-05-20T19:57:52.635Z,15.80
2019-05-20T20:00:23.315Z,15.70
2019-05-20T20:02:54.182Z,15.70
2019-05-20T20:05:26.352Z,15.70
2019-05-20T20:07:56.703Z,15.80
2019-05-20T20:10:27.830Z,15.80
2019-05-20T20:12:58.975Z,15.80
2019-05-20T20:15:30.139Z,15.80
2019-05-20T20:18:01.273Z,15.80
2019-05-20T20:20:32.007Z,15.80
2019-05-20T20:23:02.556Z,15.70
2019-05-20T20:25:33.285Z,15.70
2019-05-20T20:28:03.815Z,15.70
2019-05-20T20:30:34.619Z,15.60
2019-05-20T20:33:04.887Z,15.60
2019-05-20T20:35:38.391Z,15.50
2019-05-20T20:38:09.652Z,15.50
2019-05-20T20:40:40.183Z,15.50
2019-05-20T20:43:10.839Z,15.50
2019-05-20T20:45:41.441Z,15.50
2019-05-20T20:48:12.331Z,15.50
2019-05-20T20:50:43.329Z,15.50
2019-05-20T20:53:14.475Z,15.40
2019-05-20T20:55:45.431Z,15.40
2019-05-20T20:58:16.214Z,15.40
2019-05-20T21:00:47.104Z,15.30
2019-05-20T21:03:18.051Z,15.30
2019-05-20T21:05:49.200Z,15.20
2019-05-20T21:08:19.530Z,15.20
2019-05-20T21:10:50.083Z,15.20
2019-05-20T21:13:21.006Z,15.20
2019-05-20T21:15:52.161Z,15.10
2019-05-20T21:18:22.889Z,15.10
2019-05-20T21:20:53.639Z,15.10
2019-05-20T21:23:24.778Z,15.10
2019-05-20T21:25:55.675Z,15.00
2019-05-20T21:28:26.453Z,15.00
2019-05-20T21:30:57.158Z,15.00
2019-05-20T21:33:28.337Z,15.10
2019-05-20T21:35:59.698Z,15.10
2019-05-20T21:38:30.230Z,15.10
2019-05-20T21:41:01.178Z,15.10
2019-05-20T21:43:31.500Z,15.00
2019-05-20T21:46:02.038Z,15.00
2019-05-20T21:48:32.772Z,15.00
2019-05-20T21:51:03.197Z,14.90
2019-05-20T21:53:34.454Z,14.90
2019-05-20T21:56:05.817Z,14.90
2019-05-20T21:58:36.270Z,14.90
2019-05-20T22:01:06.931Z,14.90
2019-05-20T22:03:37.433Z,14.90
2019-05-20T22:06:08.106Z,14.90
2019-05-20T22:08:39.086Z,14.90
2019-05-20T22:11:09.668Z,14.90
2019-05-20T22:13:40.720Z,14.90
2019-05-20T22:16:12.141Z,14.90
2019-05-20T22:18:43.271Z,14.90
2019-05-20T22:21:16.066Z,14.90
2019-05-20T22:23:54.778Z,14.90
2019-05-20T22:26:25.936Z,15.00
2019-05-20T22:28:55.952Z,15.00
2019-05-20T22:31:44.821Z,15.00
2019-05-20T22:34:33.726Z,15.00
2019-05-20T22:37:04.616Z,15.00
2019-05-20T22:39:35.478Z,15.00
2019-05-20T22:42:06.787Z,15.00
2019-05-20T22:44:37.700Z,15.00
2019-05-20T22:47:08.353Z,15.00
2019-05-20T22:49:39.897Z,15.00
2019-05-20T22:52:10.956Z,15.00
2019-05-20T22:54:41.952Z,15.00
2019-05-20T22:57:12.931Z,15.10
2019-05-20T22:59:43.579Z,15.10
2019-05-20T23:02:14.395Z,15.10
2019-05-20T23:04:44.898Z,15.10
2019-05-20T23:07:15.078Z,15.10
2019-05-20T23:09:45.335Z,15.10
2019-05-20T23:12:16.292Z,15.10
2019-05-20T23:14:48.467Z,15.10
2019-05-20T23:17:19.607Z,15.10
2019-05-20T23:19:49.705Z,15.10
2019-05-20T23:22:20.228Z,15.10
2019-05-20T23:24:50.389Z,15.10
2019-05-20T23:27:21.349Z,15.10
2019-05-20T23:29:52.083Z,15.10
2019-05-20T23:32:22.981Z,15.20
2019-05-20T23:34:53.493Z,15.20
2019-05-20T23:37:24.095Z,15.20
2019-05-20T23:39:53.830Z,15.20
2019-05-20T23:42:24.559Z,15.10
2019-05-20T23:44:54.874Z,15.20
2019-05-20T23:47:25.593Z,15.20
2019-05-20T23:49:55.741Z,15.20
2019-05-20T23:52:26.676Z,15.20
2019-05-20T23:54:57.831Z,15.20
2019-05-20T23:57:28.313Z,15.10
2019-05-20T23:59:59.510Z,15.10
